createdAt,value
2023-03-26T00:00:13.059Z,16.60
2023-03-26T00:02:46.381Z,16.60
2023-03-26T00:05:19.299Z,16.60
2023-03-26T00:07:52.204Z,16.60
2023-03-26T00:10:28.302Z,16.50
2023-03-26T00:13:01.737Z,16.50
2023-03-26T00:15:35.981Z,16.50
2023-03-26T00:18:09.644Z,16.50
2023-03-26T00:20:42.849Z,16.40
2023-03-26T00:23:15.851Z,16.50
2023-03-26T00:25:51.395Z,16.50
2023-03-26T00:28:25.267Z,16.40
2023-03-26T00:31:00.874Z,16.40
2023-03-26T00:33:38.594Z,16.40
2023-03-26T00:36:15.432Z,16.40
2023-03-26T00:38:48.914Z,16.40
2023-03-26T00:41:25.467Z,16.40
2023-03-26T00:43:59.881Z,16.30
2023-03-26T00:46:32.992Z,16.30
2023-03-26T00:49:06.211Z,16.30
2023-03-26T00:51:39.683Z,16.30
2023-03-26T00:54:13.068Z,16.30
2023-03-26T00:56:47.119Z,16.30
2023-03-26T00:59:22.824Z,16.30
2023-03-26T01:01:58.664Z,16.30
2023-03-26T01:04:35.553Z,16.30
2023-03-26T01:07:14.891Z,16.30
2023-03-26T01:09:52.924Z,16.30
2023-03-26T01:12:32.964Z,16.30
2023-03-26T01:15:08.710Z,16.20
2023-03-26T01:17:43.402Z,16.20
2023-03-26T01:20:30.780Z,16.20
2023-03-26T01:23:06.658Z,16.20
2023-03-26T01:25:45.112Z,16.20
2023-03-26T01:28:18.604Z,16.20
2023-03-26T01:30:58.991Z,16.20
2023-03-26T01:33:46.529Z,16.20
2023-03-26T01:36:43.170Z,16.20
2023-03-26T01:39:39.120Z,16.20
2023-03-26T01:42:17.083Z,16.10
2023-03-26T01:45:33.063Z,16.10
2023-03-26T01:48:17.827Z,16.10
2023-03-26T01:51:02.482Z,16.10
2023-03-26T01:53:46.652Z,16.10
2023-03-26T01:56:51.202Z,16.10
2023-03-26T01:59:42.849Z,16.10
2023-03-26T02:02:27.159Z,16.10
2023-03-26T02:05:33.608Z,16.00
2023-03-26T02:08:16.852Z,16.10
2023-03-26T02:10:55.198Z,16.00
2023-03-26T02:13:28.237Z,16.10
2023-03-26T02:16:03.492Z,16.00
2023-03-26T02:18:37.020Z,16.00
2023-03-26T02:21:21.772Z,16.00
2023-03-26T02:24:03.492Z,16.00
2023-03-26T02:26:39.900Z,16.00
2023-03-26T02:29:20.774Z,16.00
2023-03-26T02:31:54.609Z,16.00
2023-03-26T02:34:27.628Z,16.10
2023-03-26T02:37:01.103Z,16.00
2023-03-26T02:39:34.553Z,16.10
2023-03-26T02:42:16.366Z,16.10
2023-03-26T02:44:54.038Z,16.00
2023-03-26T02:47:26.731Z,16.00
2023-03-26T02:49:59.958Z,16.00
2023-03-26T02:53:01.945Z,16.00
2023-03-26T02:55:38.660Z,16.00
2023-03-26T02:58:12.579Z,16.00
2023-03-26T03:00:47.256Z,16.00
2023-03-26T03:03:32.624Z,16.00
2023-03-26T03:06:05.963Z,16.00
2023-03-26T03:08:50.231Z,16.00
2023-03-26T03:11:25.053Z,15.90
2023-03-26T03:13:57.897Z,16.00
2023-03-26T03:16:32.628Z,16.00
2023-03-26T03:19:10.520Z,16.00
2023-03-26T03:21:44.437Z,15.90
2023-03-26T03:24:18.837Z,16.00
2023-03-26T03:26:58.213Z,15.90
2023-03-26T03:29:43.923Z,15.90
2023-03-26T03:32:51.457Z,15.90
2023-03-26T03:35:30.398Z,15.90
2023-03-26T03:38:04.979Z,15.90
2023-03-26T03:40:47.073Z,15.90
2023-03-26T03:43:20.118Z,15.90
2023-03-26T03:46:10.910Z,15.90
2023-03-26T03:48:50.157Z,15.90
2023-03-26T03:51:33.761Z,15.80
2023-03-26T03:54:08.994Z,15.80
2023-03-26T03:57:07.885Z,15.80
2023-03-26T03:59:48.469Z,15.80
2023-03-26T04:02:35.071Z,15.80
2023-03-26T04:05:12.289Z,15.70
2023-03-26T04:07:50.916Z,15.80
2023-03-26T04:10:29.312Z,15.70
2023-03-26T04:13:20.666Z,15.70
2023-03-26T04:16:01.989Z,15.70
2023-03-26T04:18:37.047Z,15.70
2023-03-26T04:21:17.252Z,15.70
2023-03-26T04:23:50.909Z,15.70
2023-03-26T04:26:48.284Z,15.60
2023-03-26T04:29:25.940Z,15.60
2023-03-26T04:32:07.270Z,15.60
2023-03-26T04:34:40.249Z,15.60
2023-03-26T04:37:28.048Z,15.50
2023-03-26T04:40:21.097Z,15.50
2023-03-26T04:43:18.253Z,15.50
2023-03-26T04:46:10.861Z,15.50
2023-03-26T04:48:53.246Z,15.50
2023-03-26T04:51:35.265Z,15.50
2023-03-26T04:54:12.992Z,15.50
2023-03-26T04:56:57.342Z,15.50
2023-03-26T04:59:48.132Z,15.50
2023-03-26T05:02:20.973Z,15.50
2023-03-26T05:04:59.141Z,15.50
2023-03-26T05:07:35.090Z,15.50
2023-03-26T05:10:08.664Z,15.50
2023-03-26T05:12:45.237Z,15.50
2023-03-26T05:15:22.773Z,15.50
2023-03-26T05:18:15.887Z,15.50
2023-03-26T05:20:53.319Z,15.50
2023-03-26T05:23:25.974Z,15.50
2023-03-26T05:26:19.967Z,15.50
2023-03-26T05:28:53.356Z,15.60
2023-03-26T05:31:32.810Z,15.60
2023-03-26T05:34:07.092Z,15.80
2023-03-26T05:36:39.877Z,16.10
2023-03-26T05:39:46.048Z,16.40
2023-03-26T05:42:45.851Z,16.60
2023-03-26T05:45:38.633Z,16.80
2023-03-26T05:48:34.566Z,16.90
2023-03-26T05:51:08.210Z,17.20
2023-03-26T05:53:42.850Z,17.40
2023-03-26T05:56:50.801Z,17.60
2023-03-26T05:59:49.537Z,17.80
2023-03-26T06:02:42.494Z,17.90
2023-03-26T06:05:37.586Z,17.90
2023-03-26T06:08:19.772Z,18.10
2023-03-26T06:11:05.853Z,18.30
2023-03-26T06:13:42.532Z,18.50
2023-03-26T06:16:27.092Z,18.80
2023-03-26T06:19:26.925Z,18.90
2023-03-26T06:22:25.664Z,19.20
2023-03-26T06:25:17.225Z,19.30
2023-03-26T06:28:06.498Z,19.50
2023-03-26T06:31:05.354Z,19.60
2023-03-26T06:33:41.836Z,19.80
2023-03-26T06:36:17.529Z,19.90
2023-03-26T06:38:54.140Z,20.00
2023-03-26T06:41:26.851Z,20.10
2023-03-26T06:44:15.008Z,20.30
2023-03-26T06:47:12.412Z,20.40
2023-03-26T06:50:03.695Z,20.50
2023-03-26T06:52:59.542Z,20.60
2023-03-26T06:55:49.959Z,20.70
2023-03-26T06:58:48.520Z,20.80
2023-03-26T07:01:59.356Z,20.80
2023-03-26T07:04:50.249Z,20.90
2023-03-26T07:07:46.476Z,20.90
2023-03-26T07:10:29.135Z,21.00
2023-03-26T07:13:11.390Z,21.00
2023-03-26T07:15:50.571Z,21.00
2023-03-26T07:18:43.890Z,21.10
2023-03-26T07:21:23.005Z,21.10
2023-03-26T07:23:57.887Z,21.10
2023-03-26T07:27:04.475Z,21.20
2023-03-26T07:30:00.083Z,21.20
2023-03-26T07:33:02.073Z,21.20
2023-03-26T07:36:09.667Z,21.30
2023-03-26T07:39:15.805Z,21.30
2023-03-26T07:42:28.240Z,21.40
2023-03-26T07:45:29.385Z,21.50
2023-03-26T07:48:25.840Z,21.50
2023-03-26T07:51:14.088Z,21.50
2023-03-26T07:54:08.644Z,21.60
2023-03-26T07:57:23.017Z,21.70
2023-03-26T08:00:46.870Z,21.70
2023-03-26T08:03:47.206Z,21.70
2023-03-26T08:06:41.598Z,21.80
2023-03-26T08:09:39.329Z,21.80
2023-03-26T08:12:34.782Z,21.80
2023-03-26T08:15:17.429Z,21.90
2023-03-26T08:18:01.606Z,22.00
2023-03-26T08:20:50.507Z,22.00
2023-03-26T08:23:50.463Z,22.10
2023-03-26T08:26:30.850Z,22.20
2023-03-26T08:29:39.896Z,22.30
2023-03-26T08:32:18.177Z,22.40
2023-03-26T08:34:52.994Z,22.50
2023-03-26T08:37:27.468Z,22.60
2023-03-26T08:40:00.174Z,22.60
2023-03-26T08:42:57.200Z,22.70
2023-03-26T08:45:58.838Z,22.70
2023-03-26T08:49:08.679Z,22.80
2023-03-26T08:51:53.133Z,22.80
2023-03-26T08:54:48.442Z,22.90
2023-03-26T08:57:51.663Z,22.90
2023-03-26T09:00:57.246Z,22.90
2023-03-26T09:03:56.874Z,22.90
2023-03-26T09:06:51.024Z,22.90
2023-03-26T09:09:49.274Z,23.00
2023-03-26T09:12:58.239Z,23.00
2023-03-26T09:16:01.604Z,23.00
2023-03-26T09:18:53.963Z,23.00
2023-03-26T09:22:03.864Z,23.10
2023-03-26T09:25:09.135Z,23.10
2023-03-26T09:27:52.103Z,23.00
2023-03-26T09:30:53.806Z,23.00
2023-03-26T09:33:45.547Z,23.00
2023-03-26T09:37:03.646Z,23.00
2023-03-26T09:39:47.515Z,22.90
2023-03-26T09:42:49.101Z,22.90
2023-03-26T09:45:38.005Z,22.90
2023-03-26T09:48:54.407Z,22.90
2023-03-26T09:51:54.345Z,22.90
2023-03-26T09:54:57.894Z,22.80
2023-03-26T09:57:34.582Z,22.70
2023-03-26T10:00:32.039Z,22.60
2023-03-26T10:03:26.818Z,22.50
2023-03-26T10:06:33.643Z,22.50
2023-03-26T10:09:21.648Z,22.60
2023-03-26T10:12:21.760Z,22.60
2023-03-26T10:15:23.968Z,22.60
2023-03-26T10:18:56.396Z,22.70
2023-03-26T10:21:48.256Z,22.70
2023-03-26T10:24:48.327Z,22.60
2023-03-26T10:27:37.984Z,22.60
2023-03-26T10:30:35.364Z,22.50
2023-03-26T10:33:25.833Z,22.50
2023-03-26T10:36:34.580Z,22.50
2023-03-26T10:39:37.237Z,22.40
2023-03-26T10:42:24.374Z,22.40
2023-03-26T10:45:33.496Z,22.30
2023-03-26T10:48:44.429Z,22.30
2023-03-26T10:51:41.613Z,22.30
2023-03-26T10:54:47.493Z,22.20
2023-03-26T10:57:43.062Z,22.10
2023-03-26T11:00:25.331Z,22.00
2023-03-26T11:03:41.083Z,22.00
2023-03-26T11:06:45.110Z,21.90
2023-03-26T11:09:44.948Z,21.70
2023-03-26T11:12:35.036Z,21.50
2023-03-26T11:15:59.151Z,21.40
2023-03-26T11:18:49.991Z,21.20
2023-03-26T11:21:48.915Z,21.20
2023-03-26T11:24:46.657Z,21.10
2023-03-26T11:27:36.936Z,21.00
2023-03-26T11:30:30.221Z,20.90
2023-03-26T11:33:07.093Z,20.90
2023-03-26T11:35:44.103Z,20.80
2023-03-26T11:38:22.715Z,20.70
2023-03-26T11:40:58.166Z,20.70
2023-03-26T11:44:04.209Z,20.60
2023-03-26T11:46:43.022Z,20.60
2023-03-26T11:49:20.034Z,20.50
2023-03-26T11:51:52.946Z,20.40
2023-03-26T11:54:26.601Z,20.30
2023-03-26T11:57:14.277Z,20.20
2023-03-26T12:00:08.167Z,20.20
2023-03-26T12:02:47.016Z,20.10
2023-03-26T12:05:27.653Z,20.10
2023-03-26T12:08:03.388Z,20.10
2023-03-26T12:10:42.974Z,20.10
2023-03-26T12:13:55.769Z,20.10
2023-03-26T12:16:28.612Z,20.10
2023-03-26T12:19:07.633Z,20.10
2023-03-26T12:21:48.943Z,20.10
2023-03-26T12:24:33.250Z,20.10
2023-03-26T12:27:20.905Z,20.00
2023-03-26T12:30:00.446Z,20.00
2023-03-26T12:32:45.237Z,19.90
2023-03-26T12:35:29.753Z,19.90
2023-03-26T12:38:24.852Z,19.90
2023-03-26T12:44:41.818Z,19.90
2023-03-26T12:44:46.408Z,19.90
2023-03-26T12:47:58.514Z,19.90
2023-03-26T12:50:17.692Z,19.90
2023-03-26T12:53:13.879Z,19.90
2023-03-26T12:55:59.974Z,19.90
2023-03-26T12:58:56.747Z,19.90
2023-03-26T13:02:16.544Z,19.80
2023-03-26T13:05:05.006Z,19.80
2023-03-26T13:08:00.784Z,19.80
2023-03-26T13:10:52.582Z,19.70
2023-03-26T13:13:47.759Z,19.70
2023-03-26T13:16:35.572Z,19.70
2023-03-26T13:19:31.302Z,19.70
2023-03-26T13:22:21.579Z,19.60
2023-03-26T13:25:01.161Z,19.70
2023-03-26T13:28:00.601Z,19.70
2023-03-26T13:30:47.827Z,19.60
2023-03-26T13:33:44.075Z,19.60
2023-03-26T13:36:27.416Z,19.60
2023-03-26T13:39:19.196Z,19.60
2023-03-26T13:42:22.238Z,19.60
2023-03-26T13:45:13.312Z,19.60
2023-03-26T13:47:49.951Z,19.60
2023-03-26T13:50:34.126Z,19.60
2023-03-26T13:53:23.368Z,19.60
2023-03-26T13:56:01.963Z,19.60
2023-03-26T13:58:56.863Z,19.60
2023-03-26T14:01:41.500Z,19.70
2023-03-26T14:04:41.848Z,19.70
2023-03-26T14:07:31.628Z,19.60
2023-03-26T14:10:11.067Z,19.60
2023-03-26T14:13:07.165Z,19.60
2023-03-26T14:15:57.005Z,19.60
2023-03-26T14:19:08.173Z,19.60
2023-03-26T14:22:17.201Z,19.60
2023-03-26T14:25:04.553Z,19.60
2023-03-26T14:27:55.631Z,19.60
2023-03-26T14:30:54.653Z,19.50
2023-03-26T14:34:07.742Z,19.60
2023-03-26T14:37:26.999Z,19.50
2023-03-26T14:40:19.533Z,19.50
2023-03-26T14:43:10.271Z,19.50
2023-03-26T14:45:52.965Z,19.50
2023-03-26T14:48:37.753Z,19.50
2023-03-26T14:51:13.977Z,19.50
2023-03-26T14:53:51.860Z,19.50
2023-03-26T14:56:33.436Z,19.50
2023-03-26T14:59:34.233Z,19.50
2023-03-26T15:02:44.388Z,19.50
2023-03-26T15:05:19.983Z,19.50
2023-03-26T15:08:23.359Z,19.50
2023-03-26T15:11:06.486Z,19.50
2023-03-26T15:14:08.210Z,19.50
2023-03-26T15:17:10.361Z,19.50
2023-03-26T15:20:26.392Z,19.40
2023-03-26T15:23:36.453Z,19.40
2023-03-26T15:26:37.642Z,19.50
2023-03-26T15:29:35.907Z,19.40
2023-03-26T15:32:41.247Z,19.40
2023-03-26T15:35:35.118Z,19.40
2023-03-26T15:38:29.233Z,19.40
2023-03-26T15:41:27.536Z,19.30
2023-03-26T15:44:23.712Z,19.30
2023-03-26T15:47:21.713Z,19.30
2023-03-26T15:50:32.774Z,19.30
2023-03-26T15:53:29.540Z,19.30
2023-03-26T15:56:39.156Z,19.30
2023-03-26T15:59:37.504Z,19.30
2023-03-26T16:02:44.472Z,19.30
2023-03-26T16:05:57.632Z,19.30
2023-03-26T16:08:47.402Z,19.30
2023-03-26T16:12:06.529Z,19.30
2023-03-26T16:15:06.266Z,19.30
2023-03-26T16:18:13.454Z,19.30
2023-03-26T16:20:51.180Z,19.20
2023-03-26T16:23:54.021Z,19.20
2023-03-26T16:26:37.725Z,19.20
2023-03-26T16:29:27.372Z,19.30
2023-03-26T16:32:16.834Z,19.20
2023-03-26T16:34:55.294Z,19.20
2023-03-26T16:37:36.922Z,19.20
2023-03-26T16:40:21.020Z,19.20
2023-03-26T16:43:40.927Z,19.20
2023-03-26T16:46:32.470Z,19.20
2023-03-26T16:49:25.598Z,19.10
2023-03-26T16:52:24.934Z,19.10
2023-03-26T16:55:19.863Z,19.10
2023-03-26T16:58:00.180Z,19.10
2023-03-26T17:00:48.501Z,19.10
2023-03-26T17:03:39.293Z,19.10
2023-03-26T17:06:28.986Z,19.10
2023-03-26T17:09:18.569Z,19.10
2023-03-26T17:11:59.156Z,19.00
2023-03-26T17:14:50.585Z,19.00
2023-03-26T17:17:43.186Z,19.00
2023-03-26T17:20:38.981Z,19.00
2023-03-26T17:23:33.539Z,19.00
2023-03-26T17:26:41.689Z,19.00
2023-03-26T17:29:29.380Z,19.00
2023-03-26T17:32:11.867Z,19.00
2023-03-26T17:35:04.783Z,18.90
2023-03-26T17:37:48.346Z,18.90
2023-03-26T17:40:48.749Z,18.90
2023-03-26T17:43:55.072Z,18.90
2023-03-26T17:46:41.960Z,18.90
2023-03-26T17:49:32.311Z,18.80
2023-03-26T17:52:15.661Z,18.90
2023-03-26T17:54:54.964Z,18.80
2023-03-26T17:57:34.574Z,18.80
2023-03-26T18:00:17.448Z,18.80
2023-03-26T18:03:04.916Z,18.80
2023-03-26T18:05:43.726Z,18.80
2023-03-26T18:08:56.739Z,18.80
2023-03-26T18:11:47.550Z,18.80
2023-03-26T18:14:57.954Z,18.70
2023-03-26T18:17:40.118Z,18.80
2023-03-26T18:20:29.842Z,18.70
2023-03-26T18:23:21.429Z,18.70
2023-03-26T18:26:09.857Z,18.70
2023-03-26T18:28:53.811Z,18.70
2023-03-26T18:31:32.103Z,18.70
2023-03-26T18:34:19.841Z,18.70
2023-03-26T18:37:16.879Z,18.70
2023-03-26T18:40:18.867Z,18.70
2023-03-26T18:43:01.792Z,18.70
2023-03-26T18:45:44.117Z,18.70
2023-03-26T18:48:28.678Z,18.70
2023-03-26T18:51:06.256Z,18.60
2023-03-26T18:53:57.359Z,18.60
2023-03-26T18:56:42.034Z,18.60
2023-03-26T18:59:36.123Z,18.60
2023-03-26T19:02:16.660Z,18.60
2023-03-26T19:04:57.314Z,18.60
2023-03-26T19:07:33.387Z,18.60
2023-03-26T19:10:09.974Z,18.60
2023-03-26T19:12:48.699Z,18.60
2023-03-26T19:15:22.216Z,18.50
2023-03-26T19:18:07.566Z,18.50
2023-03-26T19:20:46.582Z,18.50
2023-03-26T19:23:28.892Z,18.50
2023-03-26T19:26:04.635Z,18.50
2023-03-26T19:28:49.692Z,18.50
2023-03-26T19:31:40.402Z,18.40
2023-03-26T19:34:18.346Z,18.50
2023-03-26T19:37:01.206Z,18.50
2023-03-26T19:39:41.899Z,18.40
2023-03-26T19:42:18.702Z,18.50
2023-03-26T19:44:58.040Z,18.40
2023-03-26T19:47:50.400Z,18.40
2023-03-26T19:50:36.897Z,18.40
2023-03-26T19:53:19.204Z,18.40
2023-03-26T19:55:57.644Z,18.40
2023-03-26T19:58:30.991Z,18.40
2023-03-26T20:01:07.445Z,18.40
2023-03-26T20:03:42.627Z,18.40
2023-03-26T20:06:18.461Z,18.40
2023-03-26T20:08:52.495Z,18.30
2023-03-26T20:11:39.073Z,18.30
2023-03-26T20:14:20.192Z,18.30
2023-03-26T20:16:57.159Z,18.30
2023-03-26T20:19:30.969Z,18.30
2023-03-26T20:22:07.400Z,18.30
2023-03-26T20:24:47.376Z,18.30
2023-03-26T20:27:20.091Z,18.20
2023-03-26T20:29:53.671Z,18.30
2023-03-26T20:32:31.463Z,18.20
2023-03-26T20:35:36.226Z,18.20
2023-03-26T20:38:14.511Z,18.20
2023-03-26T20:40:47.650Z,18.20
2023-03-26T20:43:25.424Z,18.20
2023-03-26T20:45:59.321Z,18.20
2023-03-26T20:48:35.335Z,18.10
2023-03-26T20:51:15.379Z,18.10
2023-03-26T20:53:59.119Z,18.10
2023-03-26T20:56:37.954Z,18.10
2023-03-26T20:59:17.571Z,18.10
2023-03-26T21:01:51.551Z,18.10
2023-03-26T21:04:26.266Z,18.10
2023-03-26T21:07:07.063Z,18.10
2023-03-26T21:09:43.664Z,18.10
2023-03-26T21:12:33.840Z,18.10
2023-03-26T21:15:22.437Z,18.10
2023-03-26T21:18:02.635Z,18.00
2023-03-26T21:20:40.076Z,18.00
2023-03-26T21:23:40.278Z,18.00
2023-03-26T21:26:44.285Z,18.00
2023-03-26T21:29:25.210Z,18.00
2023-03-26T21:32:03.354Z,18.00
2023-03-26T21:34:42.131Z,18.00
2023-03-26T21:37:21.239Z,18.00
2023-03-26T21:39:56.614Z,17.90
2023-03-26T21:42:32.380Z,17.90
2023-03-26T21:45:36.886Z,17.90
2023-03-26T21:48:14.577Z,17.90
2023-03-26T21:50:50.555Z,17.90
2023-03-26T21:53:27.443Z,17.90
2023-03-26T21:56:42.468Z,17.90
2023-03-26T21:59:54.102Z,17.90
2023-03-26T22:02:42.318Z,17.90
2023-03-26T22:05:26.741Z,17.90
2023-03-26T22:08:08.729Z,17.80
2023-03-26T22:10:41.526Z,17.80
2023-03-26T22:13:14.355Z,17.80
2023-03-26T22:15:50.426Z,17.80
2023-03-26T22:18:26.204Z,17.80
2023-03-26T22:21:05.015Z,17.80
2023-03-26T22:23:40.781Z,17.80
2023-03-26T22:26:13.701Z,17.80
2023-03-26T22:28:49.639Z,17.70
2023-03-26T22:31:22.854Z,17.70
2023-03-26T22:34:00.855Z,17.80
2023-03-26T22:36:37.969Z,17.70
2023-03-26T22:39:16.839Z,17.80
2023-03-26T22:41:51.954Z,17.80
2023-03-26T22:44:28.295Z,17.70
2023-03-26T22:47:01.669Z,17.70
2023-03-26T22:49:40.251Z,17.70
2023-03-26T22:52:17.681Z,17.70
2023-03-26T22:55:01.139Z,17.70
2023-03-26T22:57:36.836Z,17.60
2023-03-26T23:00:21.266Z,17.60
2023-03-26T23:03:02.940Z,17.60
2023-03-26T23:05:37.922Z,17.60
2023-03-26T23:08:15.892Z,17.60
2023-03-26T23:10:55.021Z,17.60
2023-03-26T23:13:28.956Z,17.60
2023-03-26T23:16:07.620Z,17.60
2023-03-26T23:18:46.068Z,17.50
2023-03-26T23:21:22.789Z,17.50
2023-03-26T23:23:58.787Z,17.50
2023-03-26T23:26:43.920Z,17.40
2023-03-26T23:29:23.130Z,17.50
2023-03-26T23:31:59.565Z,17.50
2023-03-26T23:34:32.387Z,17.50
2023-03-26T23:37:11.313Z,17.50
2023-03-26T23:39:48.192Z,17.50
2023-03-26T23:42:28.710Z,17.50
2023-03-26T23:45:02.844Z,17.50
2023-03-26T23:47:36.001Z,17.50
2023-03-26T23:50:13.180Z,17.50
2023-03-26T23:52:48.619Z,17.50
2023-03-26T23:55:21.505Z,17.50
2023-03-26T23:57:59.591Z,17.50
